Time,TemperatureF,DewpointF,PressureIn,WindDirection,WindDirectionDegrees,WindSpeedMPH,WindSpeedGustMPH,Humidity,HourlyPrecipIn,Conditions,Clouds,dailyrainin,SolarRadiationWatts/m^2,SoftwareType,DateUTC
2013-01-07 00:00:00,37.2,28.4,30.06,West,265,3.0,6.0,70,0.00,,,0.00,0.0,meteohub,2013-01-07 05:00:00,
2013-01-07 00:02:00,37.2,28.4,30.06,NW,304,0.0,6.0,70,0.00,,,0.00,0.0,meteohub,2013-01-07 05:02:00,
2013-01-07 00:07:00,37.2,28.4,30.06,West,268,0.0,6.0,70,0.00,,,0.00,0.0,meteohub,2013-01-07 05:07:00,
2013-01-07 00:12:00,37.0,28.2,30.06,WNW,295,1.0,5.0,70,0.00,,,0.00,0.0,meteohub,2013-01-07 05:12:00,
2013-01-07 00:17:00,37.0,28.2,30.06,SW,229,1.0,4.0,70,0.00,,,0.00,0.0,meteohub,2013-01-07 05:17:00,
2013-01-07 00:22:00,37.2,28.4,30.07,SW,226,1.0,6.0,70,0.00,,,0.00,0.0,meteohub,2013-01-07 05:22:00,
2013-01-07 00:27:00,37.2,28.4,30.07,West,261,1.0,6.0,70,0.00,,,0.00,0.0,meteohub,2013-01-07 05:27:00,
2013-01-07 00:32:00,37.2,28.4,30.07,West,262,1.0,5.0,70,0.00,,,0.00,0.0,meteohub,2013-01-07 05:32:00,
2013-01-07 00:37:00,37.2,28.4,30.07,WSW,241,0.0,5.0,70,0.00,,,0.00,0.0,meteohub,2013-01-07 05:37:00,
2013-01-07 00:42:00,37.2,28.4,30.07,West,272,1.0,7.0,70,0.00,,,0.00,0.0,meteohub,2013-01-07 05:42:00,
2013-01-07 00:47:00,37.2,28.4,30.07,WSW,250,0.0,7.0,70,0.00,,,0.00,0.0,meteohub,2013-01-07 05:47:00,
2013-01-07 00:52:00,37.0,28.2,30.07,West,271,1.0,7.0,70,0.00,,,0.00,0.0,meteohub,2013-01-07 05:52:00,
2013-01-07 00:57:00,37.0,28.2,30.07,West,263,4.0,5.0,70,0.00,,,0.00,0.0,meteohub,2013-01-07 05:57:00,
2013-01-07 01:02:00,37.2,28.4,30.08,WSW,245,1.0,5.0,70,0.00,,,0.00,0.0,meteohub,2013-01-07 06:02:00,
2013-01-07 01:07:00,37.2,28.4,30.08,WSW,241,0.0,7.0,70,0.00,,,0.00,0.0,meteohub,2013-01-07 06:07:00,
2013-01-07 01:12:00,37.2,28.8,30.08,WSW,252,5.0,8.0,71,0.00,,,0.00,0.0,meteohub,2013-01-07 06:12:00,
2013-01-07 01:17:00,37.6,28.8,30.08,WSW,252,0.0,8.0,70,0.00,,,0.00,0.0,meteohub,2013-01-07 06:17:00,
2013-01-07 01:22:00,37.6,29.1,30.08,WNW,282,5.0,8.0,71,0.00,,,0.00,0.0,meteohub,2013-01-07 06:22:00,
2013-01-07 01:27:00,37.6,29.1,30.08,WNW,284,3.0,7.0,71,0.00,,,0.00,0.0,meteohub,2013-01-07 06:27:00,
2013-01-07 01:32:00,37.8,29.1,30.09,West,281,1.0,7.0,71,0.00,,,0.00,0.0,meteohub,2013-01-07 06:32:00,
2013-01-07 01:37:00,37.8,29.1,30.09,West,260,3.0,7.0,71,0.00,,,0.00,0.0,meteohub,2013-01-07 06:37:00,
2013-01-07 01:42:00,37.9,29.3,30.09,West,269,6.0,8.0,71,0.00,,,0.00,0.0,meteohub,2013-01-07 06:42:00,
2013-01-07 01:47:00,37.8,29.1,30.09,SW,232,2.0,8.0,71,0.00,,,0.00,0.0,meteohub,2013-01-07 06:47:00,
2013-01-07 01:52:00,37.9,29.3,30.09,West,268,2.0,7.0,71,0.00,,,0.00,0.0,meteohub,2013-01-07 06:52:00,
2013-01-07 01:57:00,37.9,29.3,30.09,WSW,248,4.0,7.0,71,0.00,,,0.00,0.0,meteohub,2013-01-07 06:57:00,
2013-01-07 02:02:00,37.9,29.7,30.09,West,267,1.0,9.0,72,0.00,,,0.00,0.0,meteohub,2013-01-07 07:02:00,
2013-01-07 02:07:00,37.9,29.7,30.09,WNW,283,6.0,11.0,72,0.00,,,0.00,0.0,meteohub,2013-01-07 07:07:00,
2013-01-07 02:12:00,37.9,29.7,30.09,West,274,1.0,11.0,72,0.00,,,0.00,0.0,meteohub,2013-01-07 07:12:00,
2013-01-07 02:17:00,37.9,29.7,30.10,West,274,3.0,10.0,72,0.00,,,0.00,0.0,meteohub,2013-01-07 07:17:00,
2013-01-07 02:23:00,37.8,29.5,30.10,West,263,2.0,10.0,72,0.00,,,0.00,0.0,meteohub,2013-01-07 07:23:00,
2013-01-07 02:28:00,37.8,29.8,30.10,West,277,4.0,10.0,73,0.00,,,0.00,0.0,meteohub,2013-01-07 07:28:00,
2013-01-07 02:33:00,37.6,29.7,30.10,NW,309,1.0,7.0,73,0.00,,,0.00,0.0,meteohub,2013-01-07 07:33:00,
2013-01-07 02:38:00,37.6,30.0,30.10,WSW,257,2.0,7.0,74,0.00,,,0.00,0.0,meteohub,2013-01-07 07:38:00,
2013-01-07 02:43:00,37.6,30.0,30.10,West,271,1.0,9.0,74,0.00,,,0.00,0.0,meteohub,2013-01-07 07:43:00,
2013-01-07 02:48:00,37.4,29.8,30.10,WNW,299,2.0,9.0,74,0.00,,,0.00,0.0,meteohub,2013-01-07 07:48:00,
2013-01-07 02:53:00,37.2,29.7,30.10,West,267,1.0,9.0,74,0.00,,,0.00,0.0,meteohub,2013-01-07 07:53:00,
2013-01-07 02:58:00,37.0,29.8,30.10,WSW,252,1.0,7.0,75,0.00,,,0.00,0.0,meteohub,2013-01-07 07:58:00,
2013-01-07 03:03:00,37.0,30.2,30.10,WSW,241,4.0,7.0,76,0.00,,,0.00,0.0,meteohub,2013-01-07 08:03:00,
2013-01-07 03:08:00,37.0,30.6,30.10,West,277,4.0,7.0,77,0.00,,,0.00,0.0,meteohub,2013-01-07 08:08:00,
2013-01-07 03:13:00,37.2,30.7,30.10,WSW,246,0.0,8.0,77,0.00,,,0.00,0.0,meteohub,2013-01-07 08:13:00,
2013-01-07 03:18:00,37.2,30.7,30.10,WSW,254,4.0,8.0,77,0.00,,,0.00,0.0,meteohub,2013-01-07 08:18:00,
2013-01-07 03:23:00,37.6,31.1,30.10,NW,313,3.0,8.0,77,0.00,,,0.00,0.0,meteohub,2013-01-07 08:23:00,
2013-01-07 03:28:00,37.6,31.1,30.11,WSW,251,1.0,7.0,77,0.00,,,0.00,0.0,meteohub,2013-01-07 08:28:00,
2013-01-07 03:33:00,37.8,31.5,30.10,NNE,23,0.0,7.0,78,0.00,,,0.00,0.0,meteohub,2013-01-07 08:33:00,
2013-01-07 03:38:00,37.8,31.5,30.11,NW,320,1.0,6.0,78,0.00,,,0.00,0.0,meteohub,2013-01-07 08:38:00,
2013-01-07 03:43:00,37.8,31.5,30.11,SW,217,2.0,6.0,78,0.00,,,0.00,0.0,meteohub,2013-01-07 08:43:00,
2013-01-07 03:48:00,37.8,31.5,30.11,SW,231,2.0,7.0,78,0.00,,,0.00,0.0,meteohub,2013-01-07 08:48:00,
2013-01-07 03:53:00,37.6,31.3,30.11,West,265,1.0,7.0,78,0.00,,,0.00,0.0,meteohub,2013-01-07 08:53:00,
2013-01-07 03:58:00,37.6,31.3,30.11,SW,232,3.0,7.0,78,0.00,,,0.00,0.0,meteohub,2013-01-07 08:58:00,
2013-01-07 04:03:00,37.8,31.5,30.11,WNW,300,2.0,8.0,78,0.00,,,0.00,0.0,meteohub,2013-01-07 09:03:00,
2013-01-07 04:08:00,37.6,31.6,30.11,WSW,254,0.0,8.0,79,0.00,,,0.00,0.0,meteohub,2013-01-07 09:08:00,
2013-01-07 04:13:00,37.6,31.6,30.12,SW,233,2.0,9.0,79,0.00,,,0.00,0.0,meteohub,2013-01-07 09:13:00,
2013-01-07 04:18:00,37.8,31.5,30.12,WNW,302,3.0,9.0,78,0.00,,,0.00,0.0,meteohub,2013-01-07 09:18:00,
2013-01-07 04:23:00,37.8,31.8,30.12,WSW,240,1.0,9.0,79,0.00,,,0.00,0.0,meteohub,2013-01-07 09:23:00,
2013-01-07 04:28:00,37.6,31.6,30.12,West,266,3.0,9.0,79,0.00,,,0.00,0.0,meteohub,2013-01-07 09:28:00,
2013-01-07 04:33:00,37.6,31.6,30.12,NW,319,2.0,7.0,79,0.00,,,0.00,0.0,meteohub,2013-01-07 09:33:00,
2013-01-07 04:38:00,37.4,31.5,30.13,West,270,0.0,7.0,79,0.00,,,0.00,0.0,meteohub,2013-01-07 09:38:00,
2013-01-07 04:43:00,37.6,31.6,30.13,WSW,238,2.0,8.0,79,0.00,,,0.00,0.0,meteohub,2013-01-07 09:43:00,
2013-01-07 04:48:00,37.6,31.6,30.13,WSW,242,3.0,8.0,79,0.00,,,0.00,0.0,meteohub,2013-01-07 09:48:00,
2013-01-07 04:53:00,37.6,31.6,30.14,West,273,2.0,8.0,79,0.00,,,0.00,0.0,meteohub,2013-01-07 09:53:00,
2013-01-07 04:58:00,37.6,31.6,30.14,North,11,1.0,9.0,79,0.00,,,0.00,0.0,meteohub,2013-01-07 09:58:00,
2013-01-07 05:04:00,37.6,31.6,30.14,NW,307,3.0,9.0,79,0.00,,,0.00,0.0,meteohub,2013-01-07 10:04:00,
2013-01-07 05:09:00,37.4,31.5,30.15,WNW,298,2.0,9.0,79,0.00,,,0.00,0.0,meteohub,2013-01-07 10:09:00,
2013-01-07 05:14:00,37.2,31.3,30.15,West,280,3.0,7.0,79,0.00,,,0.00,0.0,meteohub,2013-01-07 10:14:00,
2013-01-07 05:19:00,37.2,31.3,30.15,West,265,2.0,6.0,79,0.00,,,0.00,0.0,meteohub,2013-01-07 10:19:00,
2013-01-07 05:24:00,37.2,31.6,30.15,West,281,4.0,8.0,80,0.00,,,0.00,0.0,meteohub,2013-01-07 10:24:00,
2013-01-07 05:29:00,37.0,31.5,30.16,NW,315,1.0,9.0,80,0.00,,,0.00,0.0,meteohub,2013-01-07 10:29:00,
2013-01-07 05:34:00,37.2,31.6,30.16,NW,313,1.0,9.0,80,0.00,,,0.00,0.0,meteohub,2013-01-07 10:34:00,
2013-01-07 05:39:00,37.0,31.5,30.16,West,267,1.0,9.0,80,0.00,,,0.00,0.0,meteohub,2013-01-07 10:39:00,
2013-01-07 05:44:00,37.0,31.5,30.16,West,273,1.0,6.0,80,0.00,,,0.00,0.0,meteohub,2013-01-07 10:44:00,
2013-01-07 05:49:00,37.0,31.5,30.17,WSW,242,0.0,5.0,80,0.00,,,0.00,0.0,meteohub,2013-01-07 10:49:00,
2013-01-07 05:54:00,37.0,31.5,30.17,West,275,1.0,4.0,80,0.00,,,0.00,0.0,meteohub,2013-01-07 10:54:00,
2013-01-07 05:59:00,36.9,31.3,30.17,WSW,255,0.0,5.0,80,0.00,,,0.00,0.0,meteohub,2013-01-07 10:59:00,
2013-01-07 06:04:00,36.7,31.5,30.18,WSW,254,2.0,5.0,81,0.00,,,0.00,0.0,meteohub,2013-01-07 11:04:00,
2013-01-07 06:09:00,36.5,31.3,30.18,WNW,283,3.0,6.0,81,0.00,,,0.00,0.0,meteohub,2013-01-07 11:09:00,
2013-01-07 06:14:00,36.3,31.1,30.18,West,261,3.0,6.0,81,0.00,,,0.00,0.0,meteohub,2013-01-07 11:14:00,
2013-01-07 06:19:00,36.1,31.1,30.19,WNW,286,1.0,6.0,82,0.00,,,0.00,0.0,meteohub,2013-01-07 11:19:00,
2013-01-07 06:24:00,36.0,30.9,30.19,SW,232,1.0,5.0,82,0.00,,,0.00,0.0,meteohub,2013-01-07 11:24:00,
2013-01-07 06:29:00,35.8,30.7,30.19,West,262,1.0,4.0,82,0.00,,,0.00,0.0,meteohub,2013-01-07 11:29:00,
2013-01-07 06:34:00,35.8,31.1,30.19,West,271,1.0,5.0,83,0.00,,,0.00,0.0,meteohub,2013-01-07 11:34:00,
2013-01-07 06:39:00,35.8,31.1,30.19,West,281,1.0,5.0,83,0.00,,,0.00,0.0,meteohub,2013-01-07 11:39:00,
2013-01-07 06:44:00,35.8,31.1,30.20,West,264,1.0,5.0,83,0.00,,,0.00,0.0,meteohub,2013-01-07 11:44:00,
2013-01-07 06:49:00,35.4,30.7,30.21,WSW,248,2.0,5.0,83,0.00,,,0.00,0.0,meteohub,2013-01-07 11:49:00,
2013-01-07 06:54:00,35.4,30.7,30.21,WNW,285,2.0,4.0,83,0.00,,,0.00,0.0,meteohub,2013-01-07 11:54:00,
2013-01-07 06:59:00,35.4,30.7,30.21,WSW,248,0.0,5.0,83,0.00,,,0.00,0.0,meteohub,2013-01-07 11:59:00,
2013-01-07 07:04:00,35.4,31.1,30.22,WSW,252,2.0,5.0,84,0.00,,,0.00,0.0,meteohub,2013-01-07 12:04:00,
2013-01-07 07:09:00,35.2,30.9,30.22,WSW,252,1.0,3.0,84,0.00,,,0.00,0.0,meteohub,2013-01-07 12:09:00,
2013-01-07 07:14:00,35.2,30.9,30.22,West,275,2.0,3.0,84,0.00,,,0.00,5.0,meteohub,2013-01-07 12:14:00,
2013-01-07 07:19:00,35.1,30.9,30.22,West,260,2.0,3.0,85,0.00,,,0.00,7.0,meteohub,2013-01-07 12:19:00,
2013-01-07 07:24:00,35.1,30.9,30.22,West,263,2.0,5.0,85,0.00,,,0.00,11.0,meteohub,2013-01-07 12:24:00,
2013-01-07 07:29:00,35.1,30.7,30.23,WSW,247,0.0,5.0,84,0.00,,,0.00,12.0,meteohub,2013-01-07 12:29:00,
2013-01-07 07:34:00,34.9,30.6,30.23,WNW,286,0.0,5.0,84,0.00,,,0.00,16.0,meteohub,2013-01-07 12:34:00,
2013-01-07 07:39:00,34.9,30.9,30.23,WNW,296,1.0,3.0,85,0.00,,,0.00,19.0,meteohub,2013-01-07 12:39:00,
2013-01-07 07:44:00,34.9,30.9,30.24,WNW,296,0.0,3.0,85,0.00,,,0.00,23.0,meteohub,2013-01-07 12:44:00,
2013-01-07 07:49:00,34.9,31.1,30.24,WNW,296,0.0,3.0,86,0.00,,,0.00,28.0,meteohub,2013-01-07 12:49:00,
2013-01-07 07:54:00,35.1,30.9,30.25,WNW,296,0.0,3.0,85,0.00,,,0.00,35.0,meteohub,2013-01-07 12:54:00,
2013-01-07 07:59:00,35.2,31.1,30.25,West,263,0.0,1.0,85,0.00,,,0.00,46.0,meteohub,2013-01-07 12:59:00,
2013-01-07 08:04:00,35.4,31.3,30.25,West,276,0.0,1.0,85,0.00,,,0.00,56.0,meteohub,2013-01-07 13:04:00,
2013-01-07 08:09:00,36.0,31.8,30.25,West,276,0.0,3.0,85,0.00,,,0.00,65.0,meteohub,2013-01-07 13:09:00,
2013-01-07 08:14:00,36.1,31.8,30.25,West,265,0.0,3.0,84,0.00,,,0.00,72.0,meteohub,2013-01-07 13:14:00,
2013-01-07 08:19:00,36.5,32.2,30.26,NE,40,3.0,3.0,84,0.00,,,0.00,77.0,meteohub,2013-01-07 13:19:00,
2013-01-07 08:25:00,36.9,32.2,30.26,West,267,0.0,3.0,83,0.00,,,0.00,105.0,meteohub,2013-01-07 13:25:00,
2013-01-07 08:30:00,37.6,32.9,30.26,West,281,0.0,4.0,83,0.00,,,0.00,123.0,meteohub,2013-01-07 13:30:00,
2013-01-07 08:35:00,38.1,33.1,30.26,West,279,0.0,5.0,82,0.00,,,0.00,139.0,meteohub,2013-01-07 13:35:00,
2013-01-07 08:40:00,38.8,33.3,30.27,WNW,298,1.0,5.0,80,0.00,,,0.00,155.0,meteohub,2013-01-07 13:40:00,
2013-01-07 08:45:00,39.6,33.6,30.27,North,350,5.0,5.0,79,0.00,,,0.00,169.0,meteohub,2013-01-07 13:45:00,
2013-01-07 08:50:00,39.9,33.3,30.27,West,269,2.0,5.0,77,0.00,,,0.00,186.0,meteohub,2013-01-07 13:50:00,
2013-01-07 08:55:00,40.3,33.3,30.27,West,281,1.0,7.0,76,0.00,,,0.00,200.0,meteohub,2013-01-07 13:55:00,
2013-01-07 09:00:00,40.5,33.1,30.28,North,11,3.0,7.0,75,0.00,,,0.00,213.0,meteohub,2013-01-07 14:00:00,
2013-01-07 09:05:00,40.8,33.3,30.28,West,264,4.0,9.0,74,0.00,,,0.00,223.0,meteohub,2013-01-07 14:05:00,
2013-01-07 09:10:00,41.0,33.1,30.28,NW,306,2.0,9.0,73,0.00,,,0.00,236.0,meteohub,2013-01-07 14:10:00,
2013-01-07 09:15:00,41.2,33.3,30.29,NNW,342,2.0,8.0,73,0.00,,,0.00,244.0,meteohub,2013-01-07 14:15:00,
2013-01-07 09:20:00,41.2,33.3,30.29,NNW,348,3.0,8.0,73,0.00,,,0.00,257.0,meteohub,2013-01-07 14:20:00,
2013-01-07 09:25:00,41.4,33.1,30.30,NW,321,1.0,10.0,72,0.00,,,0.00,267.0,meteohub,2013-01-07 14:25:00,
2013-01-07 09:30:00,41.5,33.3,30.30,NNE,24,4.0,10.0,72,0.00,,,0.00,281.0,meteohub,2013-01-07 14:30:00,
2013-01-07 09:35:00,41.5,32.5,30.30,North,351,2.0,10.0,70,0.00,,,0.00,292.0,meteohub,2013-01-07 14:35:00,
2013-01-07 09:40:00,41.7,32.4,30.30,NNW,327,5.0,11.0,69,0.00,,,0.00,304.0,meteohub,2013-01-07 14:40:00,
2013-01-07 09:45:00,41.7,32.4,30.30,WNW,285,1.0,11.0,69,0.00,,,0.00,315.0,meteohub,2013-01-07 14:45:00,
2013-01-07 09:50:00,41.7,32.0,30.31,West,279,2.0,11.0,68,0.00,,,0.00,323.0,meteohub,2013-01-07 14:50:00,
2013-01-07 09:55:00,41.7,31.6,30.31,SW,217,1.0,11.0,67,0.00,,,0.00,334.0,meteohub,2013-01-07 14:55:00,
2013-01-07 10:00:00,41.7,31.6,30.31,NNE,13,5.0,11.0,67,0.00,,,0.00,341.0,meteohub,2013-01-07 15:00:00,
2013-01-07 10:05:00,41.7,32.0,30.31,NNE,26,3.0,10.0,68,0.00,,,0.00,352.0,meteohub,2013-01-07 15:05:00,
2013-01-07 10:10:00,41.7,31.6,30.32,NW,307,2.0,11.0,67,0.00,,,0.00,360.0,meteohub,2013-01-07 15:10:00,
2013-01-07 10:16:00,41.9,31.8,30.32,North,5,7.0,11.0,67,0.00,,,0.00,373.0,meteohub,2013-01-07 15:16:00,
2013-01-07 10:21:00,41.7,31.3,30.32,NNW,338,2.0,11.0,66,0.00,,,0.00,380.0,meteohub,2013-01-07 15:21:00,
2013-01-07 10:26:00,41.7,31.6,30.32,NNW,337,3.0,12.0,67,0.00,,,0.00,385.0,meteohub,2013-01-07 15:26:00,
2013-01-07 10:31:00,41.7,30.4,30.32,NW,317,2.0,13.0,64,0.00,,,0.00,396.0,meteohub,2013-01-07 15:31:00,
2013-01-07 10:36:00,41.7,30.7,30.32,NE,36,7.0,13.0,65,0.00,,,0.00,399.0,meteohub,2013-01-07 15:36:00,
2013-01-07 10:41:00,41.5,31.5,30.33,North,355,4.0,13.0,67,0.00,,,0.00,410.0,meteohub,2013-01-07 15:41:00,
2013-01-07 10:46:00,41.5,30.7,30.33,West,269,5.0,12.0,65,0.00,,,0.00,417.0,meteohub,2013-01-07 15:46:00,
2013-01-07 10:51:00,41.7,30.7,30.33,NW,312,4.0,14.0,65,0.00,,,0.00,422.0,meteohub,2013-01-07 15:51:00,
2013-01-07 10:56:00,41.9,31.5,30.33,North,350,7.0,14.0,66,0.00,,,0.00,427.0,meteohub,2013-01-07 15:56:00,
2013-01-07 11:01:00,41.7,30.4,30.33,NW,316,2.0,14.0,64,0.00,,,0.00,427.0,meteohub,2013-01-07 16:01:00,
2013-01-07 11:06:00,41.5,30.7,30.33,NNW,339,7.0,10.0,65,0.00,,,0.00,431.0,meteohub,2013-01-07 16:06:00,
2013-01-07 11:11:00,41.7,30.7,30.33,WNW,283,2.0,10.0,65,0.00,,,0.00,439.0,meteohub,2013-01-07 16:11:00,
2013-01-07 11:16:00,41.9,30.9,30.32,North,0,3.0,10.0,65,0.00,,,0.00,439.0,meteohub,2013-01-07 16:16:00,
2013-01-07 11:21:00,41.9,31.5,30.32,North,5,6.0,10.0,66,0.00,,,0.00,446.0,meteohub,2013-01-07 16:21:00,
2013-01-07 11:26:00,42.1,30.7,30.33,North,355,3.0,9.0,64,0.00,,,0.00,448.0,meteohub,2013-01-07 16:26:00,
2013-01-07 11:31:00,42.1,31.1,30.33,NNW,340,2.0,9.0,65,0.00,,,0.00,455.0,meteohub,2013-01-07 16:31:00,
2013-01-07 11:36:00,42.3,30.9,30.33,North,355,7.0,9.0,64,0.00,,,0.00,457.0,meteohub,2013-01-07 16:36:00,
2013-01-07 11:41:00,42.3,30.2,30.33,NW,317,6.0,11.0,62,0.00,,,0.00,462.0,meteohub,2013-01-07 16:41:00,
2013-01-07 11:46:00,42.4,30.0,30.32,NNW,329,2.0,11.0,61,0.00,,,0.00,466.0,meteohub,2013-01-07 16:46:00,
2013-01-07 11:51:00,42.6,29.7,30.32,North,355,9.0,11.0,60,0.00,,,0.00,466.0,meteohub,2013-01-07 16:51:00,
2013-01-07 11:56:00,42.4,29.5,30.32,WNW,286,5.0,10.0,60,0.00,,,0.00,466.0,meteohub,2013-01-07 16:56:00,
2013-01-07 12:01:00,42.4,30.0,30.33,WNW,284,5.0,11.0,61,0.00,,,0.00,468.0,meteohub,2013-01-07 17:01:00,
2013-01-07 12:06:00,42.4,29.5,30.33,WNW,288,2.0,12.0,60,0.00,,,0.00,464.0,meteohub,2013-01-07 17:06:00,
2013-01-07 12:12:00,42.8,29.5,30.33,North,355,2.0,12.0,59,0.00,,,0.00,469.0,meteohub,2013-01-07 17:12:00,
2013-01-07 12:17:00,43.0,29.3,30.33,North,355,6.0,12.0,58,0.00,,,0.00,461.0,meteohub,2013-01-07 17:17:00,
2013-01-07 12:22:00,42.8,28.6,30.33,SW,224,4.0,10.0,57,0.00,,,0.00,461.0,meteohub,2013-01-07 17:22:00,
2013-01-07 12:27:00,43.0,28.8,30.34,NW,304,7.0,10.0,57,0.00,,,0.00,462.0,meteohub,2013-01-07 17:27:00,
2013-01-07 12:32:00,42.4,29.1,30.34,NNW,335,5.0,10.0,59,0.00,,,0.00,455.0,meteohub,2013-01-07 17:32:00,
2013-01-07 12:37:00,42.3,28.6,30.35,NW,315,6.0,10.0,58,0.00,,,0.00,461.0,meteohub,2013-01-07 17:37:00,
2013-01-07 12:42:00,42.3,28.0,30.35,North,355,6.0,10.0,57,0.00,,,0.00,457.0,meteohub,2013-01-07 17:42:00,
2013-01-07 12:47:00,42.1,27.5,30.35,North,355,4.0,11.0,56,0.00,,,0.00,454.0,meteohub,2013-01-07 17:47:00,
2013-01-07 12:52:00,42.3,28.6,30.35,NW,310,7.0,13.0,58,0.00,,,0.00,448.0,meteohub,2013-01-07 17:52:00,
2013-01-07 12:57:00,42.1,27.1,30.34,NW,309,5.0,13.0,55,0.00,,,0.00,445.0,meteohub,2013-01-07 17:57:00,
2013-01-07 13:02:00,42.3,27.7,30.35,West,269,3.0,13.0,56,0.00,,,0.00,439.0,meteohub,2013-01-07 18:02:00,
2013-01-07 13:07:00,42.6,28.0,30.35,North,355,3.0,10.0,56,0.00,,,0.00,438.0,meteohub,2013-01-07 18:07:00,
2013-01-07 13:12:00,42.6,28.4,30.35,NW,307,6.0,9.0,57,0.00,,,0.00,432.0,meteohub,2013-01-07 18:12:00,
2013-01-07 13:17:00,42.3,28.6,30.36,NNE,17,3.0,9.0,58,0.00,,,0.00,427.0,meteohub,2013-01-07 18:17:00,
2013-01-07 13:22:00,42.1,28.8,30.36,NNE,31,3.0,10.0,59,0.00,,,0.00,418.0,meteohub,2013-01-07 18:22:00,
2013-01-07 13:27:00,41.9,28.9,30.36,North,9,2.0,10.0,60,0.00,,,0.00,410.0,meteohub,2013-01-07 18:27:00,
2013-01-07 13:32:00,42.1,29.1,30.36,NW,324,1.0,8.0,60,0.00,,,0.00,403.0,meteohub,2013-01-07 18:32:00,
2013-01-07 13:37:00,42.3,29.3,30.37,NNE,15,3.0,7.0,60,0.00,,,0.00,397.0,meteohub,2013-01-07 18:37:00,
2013-01-07 13:42:00,41.9,28.6,30.37,North,351,5.0,9.0,59,0.00,,,0.00,392.0,meteohub,2013-01-07 18:42:00,
2013-01-07 13:47:00,41.7,28.4,30.37,North,5,3.0,9.0,59,0.00,,,0.00,385.0,meteohub,2013-01-07 18:47:00,
2013-01-07 13:52:00,41.7,28.0,30.37,North,9,4.0,9.0,58,0.00,,,0.00,374.0,meteohub,2013-01-07 18:52:00,
2013-01-07 13:57:00,41.7,27.7,30.37,North,355,8.0,9.0,57,0.00,,,0.00,369.0,meteohub,2013-01-07 18:57:00,
2013-01-07 14:02:00,41.7,27.7,30.38,NNE,25,4.0,10.0,57,0.00,,,0.00,360.0,meteohub,2013-01-07 19:02:00,
2013-01-07 14:07:00,41.9,27.9,30.38,North,5,1.0,10.0,57,0.00,,,0.00,352.0,meteohub,2013-01-07 19:07:00,
2013-01-07 14:12:00,42.1,28.4,30.38,WNW,292,4.0,10.0,58,0.00,,,0.00,341.0,meteohub,2013-01-07 19:12:00,
2013-01-07 14:17:00,41.7,27.7,30.38,West,274,2.0,9.0,57,0.00,,,0.00,330.0,meteohub,2013-01-07 19:17:00,
2013-01-07 14:22:00,41.5,27.9,30.38,NNW,341,4.0,9.0,58,0.00,,,0.00,214.0,meteohub,2013-01-07 19:22:00,
2013-01-07 14:27:00,41.5,27.5,30.38,NNE,30,2.0,9.0,57,0.00,,,0.00,127.0,meteohub,2013-01-07 19:27:00,
2013-01-07 14:32:00,41.5,27.5,30.38,NNE,31,3.0,9.0,57,0.00,,,0.00,135.0,meteohub,2013-01-07 19:32:00,
2013-01-07 14:37:00,41.4,27.7,30.38,NW,308,4.0,9.0,58,0.00,,,0.00,63.0,meteohub,2013-01-07 19:37:00,
2013-01-07 14:42:00,41.0,27.9,30.38,NNW,348,3.0,8.0,59,0.00,,,0.00,144.0,meteohub,2013-01-07 19:42:00,
2013-01-07 14:47:00,40.8,27.7,30.38,North,350,4.0,7.0,59,0.00,,,0.00,130.0,meteohub,2013-01-07 19:47:00,
2013-01-07 14:52:00,41.0,27.3,30.39,West,265,1.0,7.0,58,0.00,,,0.00,142.0,meteohub,2013-01-07 19:52:00,
2013-01-07 14:57:00,41.2,27.1,30.39,WNW,292,4.0,7.0,57,0.00,,,0.00,97.0,meteohub,2013-01-07 19:57:00,
2013-01-07 15:02:00,41.0,27.0,30.40,WNW,302,2.0,7.0,57,0.00,,,0.00,118.0,meteohub,2013-01-07 20:02:00,
2013-01-07 15:06:00,41.2,27.1,30.39,North,355,2.0,6.0,57,0.00,,,0.00,176.0,meteohub,2013-01-07 20:06:00,
2013-01-07 15:11:00,40.8,26.8,30.40,WNW,283,2.0,6.0,57,0.00,,,0.00,39.0,meteohub,2013-01-07 20:11:00,
2013-01-07 15:17:00,40.6,26.6,30.40,NNW,333,2.0,7.0,57,0.00,,,0.00,42.0,meteohub,2013-01-07 20:17:00,
2013-01-07 15:19:00,40.6,26.2,30.40,West,276,2.0,7.0,56,0.00,,,0.00,33.0,meteohub,2013-01-07 20:19:00,
2013-01-07 15:24:00,40.5,26.1,30.40,NW,309,3.0,7.0,56,0.00,,,0.00,33.0,meteohub,2013-01-07 20:24:00,
2013-01-07 15:29:00,40.5,26.1,30.40,NW,312,0.0,7.0,56,0.00,,,0.00,47.0,meteohub,2013-01-07 20:29:00,
2013-01-07 15:34:00,40.5,26.4,30.40,WNW,287,2.0,8.0,57,0.00,,,0.00,28.0,meteohub,2013-01-07 20:34:00,
2013-01-07 15:39:00,40.3,26.2,30.41,WSW,242,1.0,8.0,57,0.00,,,0.00,26.0,meteohub,2013-01-07 20:39:00,
2013-01-07 15:44:00,40.1,26.1,30.41,North,5,2.0,8.0,57,0.00,,,0.00,26.0,meteohub,2013-01-07 20:44:00,
2013-01-07 15:49:00,39.9,26.4,30.41,NNW,340,2.0,5.0,58,0.00,,,0.00,25.0,meteohub,2013-01-07 20:49:00,
2013-01-07 15:54:00,39.7,26.2,30.42,NNW,327,1.0,4.0,58,0.00,,,0.00,23.0,meteohub,2013-01-07 20:54:00,
2013-01-07 15:59:00,39.7,26.6,30.42,North,0,0.0,4.0,59,0.00,,,0.00,21.0,meteohub,2013-01-07 20:59:00,
2013-01-07 16:04:00,39.6,26.4,30.42,NW,304,0.0,4.0,59,0.00,,,0.00,19.0,meteohub,2013-01-07 21:04:00,
2013-01-07 16:09:00,39.4,26.2,30.42,West,277,0.0,4.0,59,0.00,,,0.00,18.0,meteohub,2013-01-07 21:09:00,
2013-01-07 16:14:00,39.2,26.1,30.42,West,278,1.0,3.0,59,0.00,,,0.00,16.0,meteohub,2013-01-07 21:14:00,
2013-01-07 16:19:00,39.0,25.9,30.42,West,279,0.0,3.0,59,0.00,,,0.00,14.0,meteohub,2013-01-07 21:19:00,
2013-01-07 16:24:00,38.8,26.1,30.42,WNW,286,0.0,3.0,60,0.00,,,0.00,11.0,meteohub,2013-01-07 21:24:00,
2013-01-07 16:29:00,38.7,26.1,30.43,WNW,286,0.0,3.0,60,0.00,,,0.00,9.0,meteohub,2013-01-07 21:29:00,
2013-01-07 16:34:00,38.5,26.2,30.43,WNW,286,0.0,3.0,61,0.00,,,0.00,7.0,meteohub,2013-01-07 21:34:00,
2013-01-07 16:39:00,38.1,26.2,30.43,West,279,0.0,3.0,62,0.00,,,0.00,5.0,meteohub,2013-01-07 21:39:00,
2013-01-07 16:44:00,37.9,26.1,30.43,West,279,0.0,4.0,62,0.00,,,0.00,0.0,meteohub,2013-01-07 21:44:00,
2013-01-07 16:49:00,37.8,25.5,30.43,West,279,0.0,4.0,61,0.00,,,0.00,0.0,meteohub,2013-01-07 21:49:00,
2013-01-07 16:54:00,37.6,25.7,30.43,West,279,0.0,4.0,62,0.00,,,0.00,0.0,meteohub,2013-01-07 21:54:00,
2013-01-07 16:59:00,37.2,25.3,30.43,West,279,0.0,2.0,62,0.00,,,0.00,0.0,meteohub,2013-01-07 21:59:00,
2013-01-07 17:04:00,37.0,25.2,30.43,West,279,0.0,1.0,62,0.00,,,0.00,0.0,meteohub,2013-01-07 22:04:00,
2013-01-07 17:09:00,36.3,25.0,30.43,West,279,0.0,1.0,63,0.00,,,0.00,0.0,meteohub,2013-01-07 22:09:00,
2013-01-07 17:14:00,36.1,24.8,30.43,West,279,0.0,1.0,63,0.00,,,0.00,0.0,meteohub,2013-01-07 22:14:00,
2013-01-07 17:19:00,35.8,24.8,30.44,West,279,0.0,2.0,64,0.00,,,0.00,0.0,meteohub,2013-01-07 22:19:00,
2013-01-07 17:24:00,35.2,24.6,30.44,West,279,1.0,2.0,65,0.00,,,0.00,0.0,meteohub,2013-01-07 22:24:00,
2013-01-07 17:29:00,34.9,24.6,30.44,West,279,1.0,1.0,66,0.00,,,0.00,0.0,meteohub,2013-01-07 22:29:00,
2013-01-07 17:34:00,34.7,24.4,30.44,West,279,1.0,2.0,66,0.00,,,0.00,0.0,meteohub,2013-01-07 22:34:00,
2013-01-07 17:39:00,34.3,24.4,30.44,West,279,1.0,2.0,67,0.00,,,0.00,0.0,meteohub,2013-01-07 22:39:00,
2013-01-07 17:44:00,34.5,24.6,30.44,West,279,0.0,2.0,67,0.00,,,0.00,0.0,meteohub,2013-01-07 22:44:00,
2013-01-07 17:49:00,34.3,24.4,30.45,West,279,1.0,2.0,67,0.00,,,0.00,0.0,meteohub,2013-01-07 22:49:00,
2013-01-07 17:54:00,34.2,24.4,30.44,West,279,1.0,2.0,67,0.00,,,0.00,0.0,meteohub,2013-01-07 22:54:00,
2013-01-07 17:59:00,34.0,24.6,30.45,West,279,1.0,2.0,68,0.00,,,0.00,0.0,meteohub,2013-01-07 22:59:00,
2013-01-07 18:04:00,34.0,24.3,30.45,West,279,2.0,2.0,67,0.00,,,0.00,0.0,meteohub,2013-01-07 23:04:00,
2013-01-07 18:09:00,33.6,24.3,30.45,West,279,2.0,2.0,68,0.00,,,0.00,0.0,meteohub,2013-01-07 23:09:00,
2013-01-07 18:14:00,33.4,24.1,30.45,West,279,1.0,2.0,68,0.00,,,0.00,0.0,meteohub,2013-01-07 23:14:00,
2013-01-07 18:19:00,33.4,24.1,30.45,West,279,1.0,3.0,68,0.00,,,0.00,0.0,meteohub,2013-01-07 23:19:00,
2013-01-07 18:24:00,33.3,24.3,30.45,West,279,0.0,3.0,69,0.00,,,0.00,0.0,meteohub,2013-01-07 23:24:00,
2013-01-07 18:29:00,33.1,24.1,30.45,West,279,0.0,2.0,69,0.00,,,0.00,0.0,meteohub,2013-01-07 23:29:00,
2013-01-07 18:35:00,33.1,24.4,30.45,West,279,2.0,2.0,70,0.00,,,0.00,0.0,meteohub,2013-01-07 23:35:00,
2013-01-07 18:40:00,33.1,24.4,30.45,West,279,1.0,2.0,70,0.00,,,0.00,0.0,meteohub,2013-01-07 23:40:00,
2013-01-07 18:45:00,33.3,24.6,30.45,West,279,0.0,2.0,70,0.00,,,0.00,0.0,meteohub,2013-01-07 23:45:00,
2013-01-07 18:50:00,33.1,24.1,30.45,West,279,0.0,2.0,69,0.00,,,0.00,0.0,meteohub,2013-01-07 23:50:00,
2013-01-07 18:55:00,32.9,24.3,30.45,West,279,0.0,2.0,70,0.00,,,0.00,0.0,meteohub,2013-01-07 23:55:00,
2013-01-07 19:00:00,33.3,24.6,30.45,West,279,2.0,2.0,70,0.00,,,0.00,0.0,meteohub,2013-01-08 00:00:00,
2013-01-07 19:05:00,33.3,24.6,30.45,West,279,0.0,2.0,70,0.00,,,0.00,0.0,meteohub,2013-01-08 00:05:00,
2013-01-07 19:10:00,33.4,24.8,30.45,West,279,0.0,2.0,70,0.00,,,0.00,0.0,meteohub,2013-01-08 00:10:00,
2013-01-07 19:15:00,33.6,24.8,30.45,West,279,0.0,2.0,70,0.00,,,0.00,0.0,meteohub,2013-01-08 00:15:00,
2013-01-07 19:20:00,33.6,24.6,30.45,West,279,0.0,2.0,69,0.00,,,0.00,0.0,meteohub,2013-01-08 00:20:00,
2013-01-07 19:25:00,33.4,24.4,30.45,West,279,1.0,1.0,69,0.00,,,0.00,0.0,meteohub,2013-01-08 00:25:00,
2013-01-07 19:30:00,33.4,24.4,30.44,West,279,0.0,1.0,69,0.00,,,0.00,0.0,meteohub,2013-01-08 00:30:00,
2013-01-07 19:35:00,33.4,24.4,30.44,West,279,0.0,1.0,69,0.00,,,0.00,0.0,meteohub,2013-01-08 00:35:00,
2013-01-07 19:40:00,33.3,24.3,30.44,West,279,0.0,2.0,69,0.00,,,0.00,0.0,meteohub,2013-01-08 00:40:00,
2013-01-07 19:45:00,33.1,24.4,30.44,West,279,0.0,2.0,70,0.00,,,0.00,0.0,meteohub,2013-01-08 00:45:00,
2013-01-07 19:50:00,32.7,24.1,30.44,West,279,0.0,2.0,70,0.00,,,0.00,0.0,meteohub,2013-01-08 00:50:00,
2013-01-07 19:55:00,32.4,24.1,30.44,West,279,0.0,0.0,71,0.00,,,0.00,0.0,meteohub,2013-01-08 00:55:00,
2013-01-07 20:00:00,32.2,24.3,30.44,West,279,0.0,0.0,72,0.00,,,0.00,0.0,meteohub,2013-01-08 01:00:00,
2013-01-07 20:05:00,31.5,23.5,30.44,West,279,1.0,0.0,72,0.00,,,0.00,0.0,meteohub,2013-01-08 01:05:00,
2013-01-07 20:10:00,31.1,23.5,30.44,West,279,2.0,2.0,73,0.00,,,0.00,0.0,meteohub,2013-01-08 01:10:00,
2013-01-07 20:15:00,31.1,24.1,30.44,West,279,0.0,2.0,75,0.00,,,0.00,0.0,meteohub,2013-01-08 01:15:00,
2013-01-07 20:20:00,31.1,24.1,30.44,West,279,0.0,2.0,75,0.00,,,0.00,0.0,meteohub,2013-01-08 01:20:00,
2013-01-07 20:25:00,30.9,24.3,30.45,West,279,0.0,2.0,76,0.00,,,0.00,0.0,meteohub,2013-01-08 01:25:00,
2013-01-07 20:30:00,30.6,23.9,30.45,West,279,0.0,1.0,76,0.00,,,0.00,0.0,meteohub,2013-01-08 01:30:00,
2013-01-07 20:35:00,30.2,23.9,30.45,West,279,1.0,1.0,77,0.00,,,0.00,0.0,meteohub,2013-01-08 01:35:00,
2013-01-07 20:40:00,30.0,24.1,30.45,West,279,1.0,2.0,78,0.00,,,0.00,0.0,meteohub,2013-01-08 01:40:00,
2013-01-07 20:45:00,30.0,24.1,30.45,West,279,0.0,2.0,78,0.00,,,0.00,0.0,meteohub,2013-01-08 01:45:00,
2013-01-07 20:50:00,30.4,24.3,30.45,West,279,0.0,2.0,78,0.00,,,0.00,0.0,meteohub,2013-01-08 01:50:00,
2013-01-07 20:55:00,30.4,24.3,30.45,West,279,0.0,2.0,78,0.00,,,0.00,0.0,meteohub,2013-01-08 01:55:00,
2013-01-07 21:00:00,30.4,24.3,30.45,West,279,1.0,2.0,78,0.00,,,0.00,0.0,meteohub,2013-01-08 02:00:00,
2013-01-07 21:05:00,30.4,24.3,30.45,West,279,0.0,2.0,78,0.00,,,0.00,0.0,meteohub,2013-01-08 02:05:00,
2013-01-07 21:10:00,30.4,24.3,30.45,West,279,2.0,2.0,78,0.00,,,0.00,0.0,meteohub,2013-01-08 02:10:00,
2013-01-07 21:15:00,30.6,24.3,30.45,West,279,0.0,2.0,77,0.00,,,0.00,0.0,meteohub,2013-01-08 02:15:00,
2013-01-07 21:20:00,30.7,24.4,30.45,West,279,1.0,2.0,77,0.00,,,0.00,0.0,meteohub,2013-01-08 02:20:00,
2013-01-07 21:25:00,30.7,24.1,30.45,West,279,1.0,2.0,76,0.00,,,0.00,0.0,meteohub,2013-01-08 02:25:00,
2013-01-07 21:30:00,30.9,24.3,30.44,West,279,0.0,2.0,76,0.00,,,0.00,0.0,meteohub,2013-01-08 02:30:00,
2013-01-07 21:35:00,30.7,23.7,30.44,West,279,0.0,2.0,75,0.00,,,0.00,0.0,meteohub,2013-01-08 02:35:00,
2013-01-07 21:40:00,30.7,23.7,30.44,West,279,0.0,1.0,75,0.00,,,0.00,0.0,meteohub,2013-01-08 02:40:00,
2013-01-07 21:45:00,30.6,23.9,30.44,West,279,1.0,2.0,76,0.00,,,0.00,0.0,meteohub,2013-01-08 02:45:00,
2013-01-07 21:50:00,30.6,23.9,30.44,West,279,1.0,2.0,76,0.00,,,0.00,0.0,meteohub,2013-01-08 02:50:00,
2013-01-07 21:55:00,30.6,23.9,30.44,West,279,0.0,2.0,76,0.00,,,0.00,0.0,meteohub,2013-01-08 02:55:00,
2013-01-07 22:00:00,30.6,24.3,30.44,West,279,1.0,2.0,77,0.00,,,0.00,0.0,meteohub,2013-01-08 03:00:00,
2013-01-07 22:05:00,30.6,24.4,30.44,WSW,254,0.0,2.0,78,0.00,,,0.00,0.0,meteohub,2013-01-08 03:05:00,
2013-01-07 22:10:00,30.7,24.6,30.44,WSW,254,2.0,2.0,78,0.00,,,0.00,0.0,meteohub,2013-01-08 03:10:00,
2013-01-07 22:15:00,30.9,24.8,30.44,WSW,254,1.0,2.0,78,0.00,,,0.00,0.0,meteohub,2013-01-08 03:15:00,
2013-01-07 22:20:00,31.1,25.0,30.44,WSW,254,0.0,2.0,78,0.00,,,0.00,0.0,meteohub,2013-01-08 03:20:00,
2013-01-07 22:25:00,31.3,25.5,30.44,WSW,254,0.0,3.0,79,0.00,,,0.00,0.0,meteohub,2013-01-08 03:25:00,
2013-01-07 22:30:00,31.5,25.7,30.44,WSW,254,1.0,3.0,79,0.00,,,0.00,0.0,meteohub,2013-01-08 03:30:00,
2013-01-07 22:35:00,31.6,26.2,30.45,WSW,254,1.0,2.0,80,0.00,,,0.00,0.0,meteohub,2013-01-08 03:35:00,
2013-01-07 22:40:00,32.0,26.6,30.44,SSE,154,1.0,3.0,80,0.00,,,0.00,0.0,meteohub,2013-01-08 03:40:00,
2013-01-07 22:45:00,32.5,27.1,30.44,South,185,1.0,3.0,80,0.00,,,0.00,0.0,meteohub,2013-01-08 03:45:00,
2013-01-07 22:50:00,32.7,27.3,30.44,South,188,1.0,3.0,80,0.00,,,0.00,0.0,meteohub,2013-01-08 03:50:00,
2013-01-07 22:55:00,32.7,27.0,30.44,South,188,1.0,3.0,79,0.00,,,0.00,0.0,meteohub,2013-01-08 03:55:00,
2013-01-07 23:00:00,32.5,27.1,30.44,South,188,0.0,3.0,80,0.00,,,0.00,0.0,meteohub,2013-01-08 04:00:00,
2013-01-07 23:05:00,32.4,27.1,30.44,South,188,0.0,2.0,81,0.00,,,0.00,0.0,meteohub,2013-01-08 04:05:00,
2013-01-07 23:10:00,32.2,27.0,30.44,South,188,2.0,2.0,81,0.00,,,0.00,0.0,meteohub,2013-01-08 04:10:00,
2013-01-07 23:16:00,32.0,27.1,30.44,South,188,0.0,2.0,82,0.00,,,0.00,0.0,meteohub,2013-01-08 04:16:00,
2013-01-07 23:20:00,31.8,27.0,30.44,South,188,2.0,2.0,82,0.00,,,0.00,0.0,meteohub,2013-01-08 04:20:00,
2013-01-07 23:26:00,32.0,27.1,30.44,South,188,0.0,2.0,82,0.00,,,0.00,0.0,meteohub,2013-01-08 04:26:00,
2013-01-07 23:31:00,32.0,27.1,30.44,South,188,0.0,2.0,82,0.00,,,0.00,0.0,meteohub,2013-01-08 04:31:00,
2013-01-07 23:36:00,32.2,27.0,30.44,South,188,0.0,2.0,81,0.00,,,0.00,0.0,meteohub,2013-01-08 04:36:00,
2013-01-07 23:41:00,32.2,27.0,30.44,South,188,0.0,1.0,81,0.00,,,0.00,0.0,meteohub,2013-01-08 04:41:00,
2013-01-07 23:46:00,32.4,27.1,30.44,South,188,1.0,1.0,81,0.00,,,0.00,0.0,meteohub,2013-01-08 04:46:00,
2013-01-07 23:51:00,32.7,27.3,30.43,South,188,0.0,2.0,80,0.00,,,0.00,0.0,meteohub,2013-01-08 04:51:00,
2013-01-07 23:56:00,33.3,27.5,30.44,South,188,0.0,2.0,79,0.00,,,0.00,0.0,meteohub,2013-01-08 04:56:00,